Back to Top

Language: 

My Weather Underground Personal Weather Station Historical Data with Graphs...

Delerius Weather Station Historical Data
Daily Summary for January 15, 2018 Units:  Both    English   Metric
« Previous Day
Next Day »
Daily Weekly Monthly Yearly Custom
  High: Low: Average:
Temperature: 49.8 °F /  9.9 °C 37.9 °F /  3.3 °C 43.6 °F /  6.4 °C
Dew Point: 47.1 °F /  8.4 °C 35.8 °F /  2.1 °C 40.9 °F /  4.9 °C
Humidity: 94% 83% 90%
Wind Speed: 20.0mph /  32.2km/h - 12.2mph /  19.6km/h
Wind Gust: 32.0mph /  51.5km/h - -
Wind- - WSW
Pressure: 29.67 in /  1004.6 hPa 29.17 in /  987.7 hPa -
Precipitation: 0.16 in /  4.06 mm    
Historical Graphs
 
 
Tabular Data for January 15, 2018
Time Temperature Dew Point Pressure Wind Wind Speed Wind Gust Humidity Rainfall Rate (Hourly) solar Conditions
00:03 39.4 °F /  4.1 °C 37.5 °F /  3.1 °C 29.67in /  1004.6hPa SSW 10.0mph /  16.1km/h 14.0mph /  22.5km/h 93% 0.02in /  0.51mm 0 W/m2
00:10 40.1 °F /  4.5 °C 38.2 °F /  3.4 °C 29.67in /  1004.6hPa SSW 10.0mph /  16.1km/h 21.0mph /  33.8km/h 93% 0.02in /  0.51mm 0 W/m2
00:16 40.6 °F /  4.8 °C 38.8 °F /  3.8 °C 29.66in /  1004.3hPa SSW 13.0mph /  20.9km/h 20.0mph /  32.2km/h 93% 0.02in /  0.51mm 0 W/m2
00:22 41.0 °F /  5 °C 39.1 °F /  3.9 °C 29.66in /  1004.3hPa SSW 12.0mph /  19.3km/h 20.0mph /  32.2km/h 93% 0.02in /  0.51mm 0 W/m2
00:27 41.4 °F /  5.2 °C 39.5 °F /  4.2 °C 29.65in /  1003.9hPa SSW 14.0mph /  22.5km/h 24.0mph /  38.6km/h 93% 0.02in /  0.51mm 0 W/m2
00:50 42.1 °F /  5.6 °C 39.6 °F /  4.2 °C 29.61in /  1002.6hPa SSW 17.0mph /  27.4km/h 32.0mph /  51.5km/h 91% 0.02in /  0.51mm 0 W/m2
00:58 42.1 °F /  5.6 °C 39.6 °F /  4.2 °C 29.60in /  1002.3hPa SSW 18.0mph /  29km/h 25.0mph /  40.2km/h 91% 0.02in /  0.51mm 0 W/m2
01:12 42.1 °F /  5.6 °C 39.6 °F /  4.2 °C 29.58in /  1001.6hPa SSW 18.0mph /  29km/h 31.0mph /  49.9km/h 91% 0.02in /  0.51mm 0 W/m2
01:20 42.1 °F /  5.6 °C 39.6 °F /  4.2 °C 29.58in /  1001.6hPa SW 16.0mph /  25.7km/h 25.0mph /  40.2km/h 91% 0.01in /  0.25mm 0 W/m2
01:33 41.9 °F /  5.5 °C 39.7 °F /  4.3 °C 29.57in /  1001.2hPa SSW 17.0mph /  27.4km/h 29.0mph /  46.7km/h 92% 0.00in /  0mm 0 W/m2
01:38 41.9 °F /  5.5 °C 39.7 °F /  4.3 °C 29.57in /  1001.2hPa SSW 16.0mph /  25.7km/h 23.0mph /  37km/h 92% 0.00in /  0mm 0 W/m2
01:43 41.7 °F /  5.4 °C 39.6 °F /  4.2 °C 29.56in /  1000.9hPa SSW 15.0mph /  24.1km/h 26.0mph /  41.8km/h 92% 0.00in /  0mm 0 W/m2
01:49 41.7 °F /  5.4 °C 39.6 °F /  4.2 °C 29.56in /  1000.9hPa SW 16.0mph /  25.7km/h 24.0mph /  38.6km/h 92% 0.00in /  0mm 0 W/m2
01:57 41.7 °F /  5.4 °C 39.6 °F /  4.2 °C 29.55in /  1000.6hPa SSW 16.0mph /  25.7km/h 26.0mph /  41.8km/h 92% 0.00in /  0mm 0 W/m2
02:04 41.7 °F /  5.4 °C 39.6 °F /  4.2 °C 29.54in /  1000.2hPa SW 14.0mph /  22.5km/h 23.0mph /  37km/h 92% 0.00in /  0mm 0 W/m2
02:11 41.7 °F /  5.4 °C 39.8 °F /  4.3 °C 29.53in /  999.9hPa SW 18.0mph /  29km/h 24.0mph /  38.6km/h 93% 0.00in /  0mm 0 W/m2
02:32 41.9 °F /  5.5 °C 40.0 °F /  4.4 °C 29.51in /  999.2hPa SW 17.0mph /  27.4km/h 25.0mph /  40.2km/h 93% 0.01in /  0.25mm 0 W/m2
02:38 42.1 °F /  5.6 °C 40.2 °F /  4.6 °C 29.51in /  999.2hPa SSW 14.0mph /  22.5km/h 25.0mph /  40.2km/h 93% 0.01in /  0.25mm 0 W/m2
02:49 42.1 °F /  5.6 °C 40.2 °F /  4.6 °C 29.50in /  998.9hPa SSW 15.0mph /  24.1km/h 24.0mph /  38.6km/h 93% 0.01in /  0.25mm 0 W/m2
02:58 42.3 °F /  5.7 °C 40.4 °F /  4.7 °C 29.49in /  998.5hPa SSW 17.0mph /  27.4km/h 24.0mph /  38.6km/h 93% 0.01in /  0.25mm 0 W/m2
03:08 42.3 °F /  5.7 °C 40.4 °F /  4.7 °C 29.49in /  998.5hPa SSW 13.0mph /  20.9km/h 22.0mph /  35.4km/h 93% 0.01in /  0.25mm 0 W/m2
03:16 42.4 °F /  5.8 °C 40.6 °F /  4.8 °C 29.48in /  998.2hPa SSW 15.0mph /  24.1km/h 25.0mph /  40.2km/h 93% 0.01in /  0.25mm 0 W/m2
03:21 42.4 °F /  5.8 °C 40.6 °F /  4.8 °C 29.48in /  998.2hPa SSW 15.0mph /  24.1km/h 23.0mph /  37km/h 93% 0.00in /  0mm 0 W/m2
03:26 42.4 °F /  5.8 °C 40.6 °F /  4.8 °C 29.47in /  997.9hPa SSW 15.0mph /  24.1km/h 28.0mph /  45.1km/h 93% 0.00in /  0mm 0 W/m2
03:32 42.6 °F /  5.9 °C 40.7 °F /  4.8 °C 29.47in /  997.9hPa SW 15.0mph /  24.1km/h 23.0mph /  37km/h 93% 0.00in /  0mm 0 W/m2
03:47 42.8 °F /  6 °C 40.9 °F /  4.9 °C 29.45in /  997.2hPa SSW 20.0mph /  32.2km/h 28.0mph /  45.1km/h 93% 0.01in /  0.25mm 0 W/m2
03:56 43.0 °F /  6.1 °C 41.1 °F /  5.1 °C 29.44in /  996.8hPa SSW 17.0mph /  27.4km/h 25.0mph /  40.2km/h 93% 0.01in /  0.25mm 0 W/m2
04:16 43.2 °F /  6.2 °C 41.3 °F /  5.2 °C 29.42in /  996.2hPa SSW 14.0mph /  22.5km/h 24.0mph /  38.6km/h 93% 0.01in /  0.25mm 0 W/m2
04:23 43.2 °F /  6.2 °C 41.3 °F /  5.2 °C 29.42in /  996.2hPa SSW 12.0mph /  19.3km/h 22.0mph /  35.4km/h 93% 0.02in /  0.51mm 0 W/m2
04:28 43.2 °F /  6.2 °C 41.3 °F /  5.2 °C 29.41in /  995.8hPa SSW 12.0mph /  19.3km/h 22.0mph /  35.4km/h 93% 0.02in /  0.51mm 0 W/m2
04:44 43.5 °F /  6.4 °C 41.6 °F /  5.3 °C 29.40in /  995.5hPa SSW 14.0mph /  22.5km/h 26.0mph /  41.8km/h 93% 0.01in /  0.25mm 0 W/m2
04:52 43.7 °F /  6.5 °C 41.8 °F /  5.4 °C 29.40in /  995.5hPa SW 19.0mph /  30.6km/h 25.0mph /  40.2km/h 93% 0.01in /  0.25mm 0 W/m2
04:57 43.9 °F /  6.6 °C 42.0 °F /  5.6 °C 29.39in /  995.1hPa SSW 15.0mph /  24.1km/h 23.0mph /  37km/h 93% 0.01in /  0.25mm 0 W/m2
05:07 43.9 °F /  6.6 °C 42.0 °F /  5.6 °C 29.38in /  994.8hPa SW 16.0mph /  25.7km/h 22.0mph /  35.4km/h 93% 0.01in /  0.25mm 0 W/m2
05:13 43.9 °F /  6.6 °C 42.0 °F /  5.6 °C 29.38in /  994.8hPa SW 13.0mph /  20.9km/h 20.0mph /  32.2km/h 93% 0.01in /  0.25mm 0 W/m2
05:23 44.1 °F /  6.7 °C 42.2 °F /  5.7 °C 29.37in /  994.5hPa SSW 13.0mph /  20.9km/h 21.0mph /  33.8km/h 93% 0.00in /  0mm 0 W/m2
05:47 44.2 °F /  6.8 °C 42.6 °F /  5.9 °C 29.36in /  994.1hPa SSW 12.0mph /  19.3km/h 16.0mph /  25.7km/h 94% 0.00in /  0mm 0 W/m2
05:57 44.6 °F /  7 °C 43.0 °F /  6.1 °C 29.35in /  993.8hPa SSW 12.0mph /  19.3km/h 21.0mph /  33.8km/h 94% 0.00in /  0mm 0 W/m2
06:02 44.6 °F /  7 °C 43.0 °F /  6.1 °C 29.35in /  993.8hPa SSW 13.0mph /  20.9km/h 24.0mph /  38.6km/h 94% 0.00in /  0mm 0 W/m2
06:14 44.8 °F /  7.1 °C 43.2 °F /  6.2 °C 29.34in /  993.5hPa SSW 14.0mph /  22.5km/h 23.0mph /  37km/h 94% 0.00in /  0mm 0 W/m2
06:29 45.0 °F /  7.2 °C 43.3 °F /  6.3 °C 29.33in /  993.1hPa SW 14.0mph /  22.5km/h 22.0mph /  35.4km/h 94% 0.00in /  0mm 0 W/m2
06:39 45.0 °F /  7.2 °C 43.3 °F /  6.3 °C 29.32in /  992.8hPa SW 13.0mph /  20.9km/h 21.0mph /  33.8km/h 94% 0.00in /  0mm 0 W/m2
06:44 45.0 °F /  7.2 °C 43.3 °F /  6.3 °C 29.32in /  992.8hPa SW 11.0mph /  17.7km/h 18.0mph /  29km/h 94% 0.00in /  0mm 0 W/m2
06:50 45.0 °F /  7.2 °C 43.3 °F /  6.3 °C 29.31in /  992.4hPa SW 13.0mph /  20.9km/h 20.0mph /  32.2km/h 94% 0.00in /  0mm 0 W/m2
06:57 45.0 °F /  7.2 °C 43.3 °F /  6.3 °C 29.31in /  992.4hPa SW 12.0mph /  19.3km/h 16.0mph /  25.7km/h 94% 0.00in /  0mm 0 W/m2
07:07 45.1 °F /  7.3 °C 43.2 °F /  6.2 °C 29.30in /  992.1hPa SW 12.0mph /  19.3km/h 20.0mph /  32.2km/h 93% 0.00in /  0mm 0 W/m2
07:20 45.3 °F /  7.4 °C 43.4 °F /  6.3 °C 29.29in /  991.8hPa SW 12.0mph /  19.3km/h 16.0mph /  25.7km/h 93% 0.00in /  0mm 0 W/m2
07:27 45.5 °F /  7.5 °C 43.6 °F /  6.4 °C 29.29in /  991.8hPa SW 12.0mph /  19.3km/h 19.0mph /  30.6km/h 93% 0.00in /  0mm 0 W/m2
07:39 45.9 °F /  7.7 °C 44.2 °F /  6.8 °C 29.28in /  991.4hPa SW 10.0mph /  16.1km/h 15.0mph /  24.1km/h 94% 0.00in /  0mm 0 W/m2
07:46 46.0 °F /  7.8 °C 44.4 °F /  6.9 °C 29.28in /  991.4hPa SSW 6.0mph /  9.7km/h 13.0mph /  20.9km/h 94% 0.00in /  0mm 0 W/m2
07:53 46.0 °F /  7.8 °C 44.4 °F /  6.9 °C 29.27in /  991.1hPa SSW 6.0mph /  9.7km/h 12.0mph /  19.3km/h 94% 0.00in /  0mm 0 W/m2
08:13 46.2 °F /  7.9 °C 44.6 °F /  7 °C 29.28in /  991.4hPa SW 6.0mph /  9.7km/h 11.0mph /  17.7km/h 94% 0.00in /  0mm 5 W/m2
08:20 46.6 °F /  8.1 °C 44.9 °F /  7.2 °C 29.27in /  991.1hPa SSW 2.0mph /  3.2km/h 8.0mph /  12.9km/h 94% 0.00in /  0mm 5 W/m2
08:38 46.8 °F /  8.2 °C 45.1 °F /  7.3 °C 29.27in /  991.1hPa SW 6.0mph /  9.7km/h 11.0mph /  17.7km/h 94% 0.00in /  0mm 25 W/m2
08:58 47.8 °F /  8.8 °C 45.9 °F /  7.7 °C 29.27in /  991.1hPa SW 9.0mph /  14.5km/h 13.0mph /  20.9km/h 93% 0.00in /  0mm 19 W/m2
09:06 47.8 °F /  8.8 °C 45.9 °F /  7.7 °C 29.27in /  991.1hPa SW 8.0mph /  12.9km/h 14.0mph /  22.5km/h 93% 0.01in /  0.25mm 25 W/m2
09:12 47.8 °F /  8.8 °C 45.9 °F /  7.7 °C 29.26in /  990.7hPa SW 6.0mph /  9.7km/h 10.0mph /  16.1km/h 93% 0.01in /  0.25mm 16 W/m2
09:17 47.8 °F /  8.8 °C 45.9 °F /  7.7 °C 29.26in /  990.7hPa SW 9.0mph /  14.5km/h 13.0mph /  20.9km/h 93% 0.01in /  0.25mm 37 W/m2
09:28 48.2 °F /  9 °C 46.6 °F /  8.1 °C 29.26in /  990.7hPa SW 9.0mph /  14.5km/h 13.0mph /  20.9km/h 94% 0.02in /  0.51mm 93 W/m2
09:35 48.6 °F /  9.2 °C 46.9 °F /  8.3 °C 29.25in /  990.4hPa SW 10.0mph /  16.1km/h 13.0mph /  20.9km/h 94% 0.02in /  0.51mm 86 W/m2
09:48 48.7 °F /  9.3 °C 46.8 °F /  8.2 °C 29.24in /  990.1hPa WSW 10.0mph /  16.1km/h 14.0mph /  22.5km/h 93% 0.02in /  0.51mm 46 W/m2
09:54 48.9 °F /  9.4 °C 46.7 °F /  8.2 °C 29.24in /  990.1hPa WSW 9.0mph /  14.5km/h 12.0mph /  19.3km/h 92% 0.02in /  0.51mm 51 W/m2
10:07 49.5 °F /  9.7 °C 46.9 °F /  8.3 °C 29.23in /  989.7hPa WSW 11.0mph /  17.7km/h 20.0mph /  32.2km/h 91% 0.01in /  0.25mm 171 W/m2
10:12 49.6 °F /  9.8 °C 47.1 °F /  8.4 °C 29.23in /  989.7hPa West 7.0mph /  11.3km/h 14.0mph /  22.5km/h 91% 0.01in /  0.25mm 257 W/m2
10:26 49.8 °F /  9.9 °C 47.0 °F /  8.3 °C 29.22in /  989.4hPa WSW 8.0mph /  12.9km/h 12.0mph /  19.3km/h 90% 0.00in /  0mm 70 W/m2
10:33 49.6 °F /  9.8 °C 46.5 °F /  8.1 °C 29.22in /  989.4hPa West 11.0mph /  17.7km/h 15.0mph /  24.1km/h 89% 0.00in /  0mm 69 W/m2
10:38 49.6 °F /  9.8 °C 46.2 °F /  7.9 °C 29.21in /  989.1hPa West 15.0mph /  24.1km/h 25.0mph /  40.2km/h 88% 0.00in /  0mm 69 W/m2
10:48 49.8 °F /  9.9 °C 46.7 °F /  8.2 °C 29.21in /  989.1hPa West 10.0mph /  16.1km/h 18.0mph /  29km/h 89% 0.00in /  0mm 192 W/m2
11:08 49.6 °F /  9.8 °C 46.5 °F /  8.1 °C 29.20in /  988.7hPa West 9.0mph /  14.5km/h 15.0mph /  24.1km/h 89% 0.00in /  0mm 47 W/m2
11:17 49.3 °F /  9.6 °C 46.5 °F /  8.1 °C 29.21in /  989.1hPa WNW 10.0mph /  16.1km/h 15.0mph /  24.1km/h 90% 0.01in /  0.25mm 30 W/m2
11:24 48.6 °F /  9.2 °C 46.1 °F /  7.8 °C 29.21in /  989.1hPa West 12.0mph /  19.3km/h 21.0mph /  33.8km/h 91% 0.02in /  0.51mm 28 W/m2
11:29 47.8 °F /  8.8 °C 45.3 °F /  7.4 °C 29.21in /  989.1hPa WNW 12.0mph /  19.3km/h 20.0mph /  32.2km/h 91% 0.02in /  0.51mm 47 W/m2
11:40 47.1 °F /  8.4 °C 44.6 °F /  7 °C 29.20in /  988.7hPa West 9.0mph /  14.5km/h 14.0mph /  22.5km/h 91% 0.03in /  0.76mm 72 W/m2
12:06 46.9 °F /  8.3 °C 44.7 °F /  7.1 °C 29.18in /  988hPa West 7.0mph /  11.3km/h 13.0mph /  20.9km/h 92% 0.04in /  1.02mm 142 W/m2
12:12 47.1 °F /  8.4 °C 44.9 °F /  7.2 °C 29.18in /  988hPa WNW 5.0mph /  8km/h 11.0mph /  17.7km/h 92% 0.04in /  1.02mm 137 W/m2
12:20 47.7 °F /  8.7 °C 45.7 °F /  7.6 °C 29.18in /  988hPa WNW 8.0mph /  12.9km/h 13.0mph /  20.9km/h 93% 0.02in /  0.51mm 88 W/m2
12:27 47.7 °F /  8.7 °C 45.5 °F /  7.5 °C 29.18in /  988hPa WNW 9.0mph /  14.5km/h 18.0mph /  29km/h 92% 0.02in /  0.51mm 76 W/m2
12:36 47.7 °F /  8.7 °C 45.5 °F /  7.5 °C 29.18in /  988hPa WNW 12.0mph /  19.3km/h 23.0mph /  37km/h 92% 0.01in /  0.25mm 139 W/m2
12:43 47.7 °F /  8.7 °C 45.5 °F /  7.5 °C 29.18in /  988hPa WNW 9.0mph /  14.5km/h 15.0mph /  24.1km/h 92% 0.01in /  0.25mm 76 W/m2
12:48 47.7 °F /  8.7 °C 45.2 °F /  7.3 °C 29.18in /  988hPa WNW 10.0mph /  16.1km/h 13.0mph /  20.9km/h 91% 0.01in /  0.25mm 56 W/m2
12:54 47.5 °F /  8.6 °C 45.0 °F /  7.2 °C 29.18in /  988hPa WNW 8.0mph /  12.9km/h 14.0mph /  22.5km/h 91% 0.00in /  0mm 51 W/m2
13:10 47.5 °F /  8.6 °C 44.7 °F /  7.1 °C 29.17in /  987.7hPa WNW 13.0mph /  20.9km/h 22.0mph /  35.4km/h 90% 0.00in /  0mm 304 W/m2
13:15 47.5 °F /  8.6 °C 44.4 °F /  6.9 °C 29.17in /  987.7hPa WNW 14.0mph /  22.5km/h 23.0mph /  37km/h 89% 0.00in /  0mm 60 W/m2
13:20 47.3 °F /  8.5 °C 43.9 °F /  6.6 °C 29.18in /  988hPa WNW 15.0mph /  24.1km/h 25.0mph /  40.2km/h 88% 0.00in /  0mm 56 W/m2
13:27 46.9 °F /  8.3 °C 43.3 °F /  6.3 °C 29.18in /  988hPa WNW 14.0mph /  22.5km/h 21.0mph /  33.8km/h 87% 0.00in /  0mm 83 W/m2
13:34 46.6 °F /  8.1 °C 42.6 °F /  5.9 °C 29.18in /  988hPa WNW 18.0mph /  29km/h 28.0mph /  45.1km/h 86% 0.00in /  0mm 72 W/m2
13:39 46.8 °F /  8.2 °C 42.8 °F /  6 °C 29.18in /  988hPa WNW 15.0mph /  24.1km/h 22.0mph /  35.4km/h 86% 0.00in /  0mm 244 W/m2
13:49 46.9 °F /  8.3 °C 43.0 °F /  6.1 °C 29.18in /  988hPa WNW 15.0mph /  24.1km/h 28.0mph /  45.1km/h 86% 0.00in /  0mm 237 W/m2
14:02 46.2 °F /  7.9 °C 42.3 °F /  5.7 °C 29.18in /  988hPa WNW 15.0mph /  24.1km/h 24.0mph /  38.6km/h 86% 0.00in /  0mm 39 W/m2
14:07 46.0 °F /  7.8 °C 42.1 °F /  5.6 °C 29.18in /  988hPa WNW 15.0mph /  24.1km/h 21.0mph /  33.8km/h 86% 0.00in /  0mm 46 W/m2
14:13 45.9 °F /  7.7 °C 42.2 °F /  5.7 °C 29.19in /  988.4hPa WNW 15.0mph /  24.1km/h 23.0mph /  37km/h 87% 0.00in /  0mm 62 W/m2
14:21 45.7 °F /  7.6 °C 42.0 °F /  5.6 °C 29.18in /  988hPa WNW 14.0mph /  22.5km/h 23.0mph /  37km/h 87% 0.00in /  0mm 33 W/m2
14:51 45.7 °F /  7.6 °C 41.4 °F /  5.2 °C 29.19in /  988.4hPa WNW 13.0mph /  20.9km/h 23.0mph /  37km/h 85% 0.00in /  0mm 83 W/m2
14:57 45.5 °F /  7.5 °C 41.3 °F /  5.2 °C 29.19in /  988.4hPa WNW 13.0mph /  20.9km/h 20.0mph /  32.2km/h 85% 0.00in /  0mm 46 W/m2
15:25 44.6 °F /  7 °C 39.8 °F /  4.3 °C 29.19in /  988.4hPa West 11.0mph /  17.7km/h 21.0mph /  33.8km/h 83% 0.00in /  0mm 16 W/m2
15:47 43.5 °F /  6.4 °C 39.3 °F /  4.1 °C 29.19in /  988.4hPa WNW 14.0mph /  22.5km/h 24.0mph /  38.6km/h 85% 0.00in /  0mm 12 W/m2
16:02 43.3 °F /  6.3 °C 39.4 °F /  4.1 °C 29.19in /  988.4hPa West 16.0mph /  25.7km/h 24.0mph /  38.6km/h 86% 0.00in /  0mm 9 W/m2
16:14 43.3 °F /  6.3 °C 39.1 °F /  3.9 °C 29.19in /  988.4hPa West 16.0mph /  25.7km/h 28.0mph /  45.1km/h 85% 0.00in /  0mm 5 W/m2
16:37 43.2 °F /  6.2 °C 39.0 °F /  3.9 °C 29.20in /  988.7hPa WNW 15.0mph /  24.1km/h 23.0mph /  37km/h 85% 0.00in /  0mm 0 W/m2
16:44 43.0 °F /  6.1 °C 38.8 °F /  3.8 °C 29.20in /  988.7hPa WNW 13.0mph /  20.9km/h 21.0mph /  33.8km/h 85% 0.00in /  0mm 0 W/m2
16:56 43.0 °F /  6.1 °C 38.8 °F /  3.8 °C 29.21in /  989.1hPa WNW 12.0mph /  19.3km/h 27.0mph /  43.5km/h 85% 0.00in /  0mm 0 W/m2
17:01 43.2 °F /  6.2 °C 39.0 °F /  3.9 °C 29.21in /  989.1hPa West 13.0mph /  20.9km/h 22.0mph /  35.4km/h 85% 0.00in /  0mm 0 W/m2
17:24 43.0 °F /  6.1 °C 39.4 °F /  4.1 °C 29.21in /  989.1hPa West 9.0mph /  14.5km/h 13.0mph /  20.9km/h 87% 0.00in /  0mm 0 W/m2
17:31 42.6 °F /  5.9 °C 39.0 °F /  3.9 °C 29.21in /  989.1hPa West 11.0mph /  17.7km/h 16.0mph /  25.7km/h 87% 0.00in /  0mm 0 W/m2
17:42 42.3 °F /  5.7 °C 38.4 °F /  3.6 °C 29.20in /  988.7hPa West 12.0mph /  19.3km/h 21.0mph /  33.8km/h 86% 0.00in /  0mm 0 W/m2
18:00 41.9 °F /  5.5 °C 38.0 °F /  3.3 °C 29.20in /  988.7hPa West 12.0mph /  19.3km/h 18.0mph /  29km/h 86% 0.00in /  0mm 0 W/m2
18:14 41.9 °F /  5.5 °C 38.3 °F /  3.5 °C 29.20in /  988.7hPa West 9.0mph /  14.5km/h 15.0mph /  24.1km/h 87% 0.00in /  0mm 0 W/m2
18:23 42.1 °F /  5.6 °C 38.5 °F /  3.6 °C 29.20in /  988.7hPa West 9.0mph /  14.5km/h 12.0mph /  19.3km/h 87% 0.00in /  0mm 0 W/m2
18:43 41.5 °F /  5.3 °C 37.7 °F /  3.2 °C 29.20in /  988.7hPa West 10.0mph /  16.1km/h 16.0mph /  25.7km/h 86% 0.00in /  0mm 0 W/m2
18:48 41.5 °F /  5.3 °C 37.7 °F /  3.2 °C 29.20in /  988.7hPa West 9.0mph /  14.5km/h 15.0mph /  24.1km/h 86% 0.00in /  0mm 0 W/m2
18:53 41.5 °F /  5.3 °C 37.7 °F /  3.2 °C 29.20in /  988.7hPa West 12.0mph /  19.3km/h 21.0mph /  33.8km/h 86% 0.00in /  0mm 0 W/m2
19:02 41.7 °F /  5.4 °C 37.8 °F /  3.2 °C 29.20in /  988.7hPa West 10.0mph /  16.1km/h 14.0mph /  22.5km/h 86% 0.00in /  0mm 0 W/m2
19:10 41.7 °F /  5.4 °C 37.8 °F /  3.2 °C 29.20in /  988.7hPa West 18.0mph /  29km/h 27.0mph /  43.5km/h 86% 0.00in /  0mm 0 W/m2
19:18 41.5 °F /  5.3 °C 38.0 °F /  3.3 °C 29.20in /  988.7hPa West 14.0mph /  22.5km/h 26.0mph /  41.8km/h 87% 0.00in /  0mm 0 W/m2
19:23 41.4 °F /  5.2 °C 37.8 °F /  3.2 °C 29.20in /  988.7hPa West 13.0mph /  20.9km/h 20.0mph /  32.2km/h 87% 0.00in /  0mm 0 W/m2
19:29 41.2 °F /  5.1 °C 37.6 °F /  3.1 °C 29.20in /  988.7hPa West 13.0mph /  20.9km/h 21.0mph /  33.8km/h 87% 0.00in /  0mm 0 W/m2
19:49 40.6 °F /  4.8 °C 36.8 °F /  2.7 °C 29.20in /  988.7hPa West 10.0mph /  16.1km/h 15.0mph /  24.1km/h 86% 0.00in /  0mm 0 W/m2
19:57 40.5 °F /  4.7 °C 36.6 °F /  2.6 °C 29.20in /  988.7hPa West 9.0mph /  14.5km/h 14.0mph /  22.5km/h 86% 0.00in /  0mm 0 W/m2
20:04 40.3 °F /  4.6 °C 36.4 °F /  2.4 °C 29.20in /  988.7hPa West 11.0mph /  17.7km/h 18.0mph /  29km/h 86% 0.00in /  0mm 0 W/m2
20:14 40.3 °F /  4.6 °C 36.7 °F /  2.6 °C 29.19in /  988.4hPa West 12.0mph /  19.3km/h 21.0mph /  33.8km/h 87% 0.00in /  0mm 0 W/m2
20:25 40.3 °F /  4.6 °C 37.0 °F /  2.8 °C 29.18in /  988hPa West 12.0mph /  19.3km/h 19.0mph /  30.6km/h 88% 0.00in /  0mm 0 W/m2
20:37 40.3 °F /  4.6 °C 37.0 °F /  2.8 °C 29.18in /  988hPa WSW 11.0mph /  17.7km/h 15.0mph /  24.1km/h 88% 0.00in /  0mm 0 W/m2
20:46 40.5 °F /  4.7 °C 37.2 °F /  2.9 °C 29.18in /  988hPa West 14.0mph /  22.5km/h 25.0mph /  40.2km/h 88% 0.00in /  0mm 0 W/m2
20:47 40.5 °F /  4.7 °C 37.2 °F /  2.9 °C 29.18in /  988hPa West 14.0mph /  22.5km/h 25.0mph /  40.2km/h 88% 0.00in /  0mm 0 W/m2
20:48 40.5 °F /  4.7 °C 37.2 °F /  2.9 °C 29.19in /  988.4hPa WSW 13.0mph /  20.9km/h 19.0mph /  30.6km/h 88% 0.00in /  0mm 0 W/m2
20:49 40.5 °F /  4.7 °C 37.2 °F /  2.9 °C 29.19in /  988.4hPa WSW 12.0mph /  19.3km/h 19.0mph /  30.6km/h 88% 0.00in /  0mm 0 W/m2
20:50 40.5 °F /  4.7 °C 36.9 °F /  2.7 °C 29.19in /  988.4hPa WSW 12.0mph /  19.3km/h 19.0mph /  30.6km/h 87% 0.00in /  0mm 0 W/m2
20:51 40.5 °F /  4.7 °C 36.9 °F /  2.7 °C 29.19in /  988.4hPa West 12.0mph /  19.3km/h 22.0mph /  35.4km/h 87% 0.00in /  0mm 0 W/m2
20:52 40.5 °F /  4.7 °C 36.9 °F /  2.7 °C 29.19in /  988.4hPa West 13.0mph /  20.9km/h 22.0mph /  35.4km/h 87% 0.00in /  0mm 0 W/m2
20:56 40.5 °F /  4.7 °C 36.9 °F /  2.7 °C 29.19in /  988.4hPa WSW 11.0mph /  17.7km/h 19.0mph /  30.6km/h 87% 0.00in /  0mm 0 W/m2
21:02 40.1 °F /  4.5 °C 36.8 °F /  2.7 °C 29.18in /  988hPa WSW 11.0mph /  17.7km/h 19.0mph /  30.6km/h 88% 0.00in /  0mm 0 W/m2
21:06 39.9 °F /  4.4 °C 36.7 °F /  2.6 °C 29.18in /  988hPa WSW 11.0mph /  17.7km/h 16.0mph /  25.7km/h 88% 0.00in /  0mm 0 W/m2
21:07 39.7 °F /  4.3 °C 36.5 °F /  2.5 °C 29.18in /  988hPa WSW 10.0mph /  16.1km/h 14.0mph /  22.5km/h 88% 0.00in /  0mm 0 W/m2
21:16 39.7 °F /  4.3 °C 36.8 °F /  2.7 °C 29.18in /  988hPa West 10.0mph /  16.1km/h 20.0mph /  32.2km/h 89% 0.00in /  0mm 0 W/m2
21:23 39.9 °F /  4.4 °C 37.2 °F /  2.9 °C 29.18in /  988hPa WSW 11.0mph /  17.7km/h 18.0mph /  29km/h 90% 0.00in /  0mm 0 W/m2
21:29 39.9 °F /  4.4 °C 37.2 °F /  2.9 °C 29.18in /  988hPa WSW 8.0mph /  12.9km/h 13.0mph /  20.9km/h 90% 0.00in /  0mm 0 W/m2
21:37 40.3 °F /  4.6 °C 37.6 °F /  3.1 °C 29.18in /  988hPa West 13.0mph /  20.9km/h 21.0mph /  33.8km/h 90% 0.00in /  0mm 0 W/m2
21:48 40.5 °F /  4.7 °C 37.5 °F /  3.1 °C 29.19in /  988.4hPa West 14.0mph /  22.5km/h 21.0mph /  33.8km/h 89% 0.00in /  0mm 0 W/m2
21:56 40.5 °F /  4.7 °C 37.5 °F /  3.1 °C 29.18in /  988hPa West 10.0mph /  16.1km/h 16.0mph /  25.7km/h 89% 0.00in /  0mm 0 W/m2
22:01 40.5 °F /  4.7 °C 37.5 °F /  3.1 °C 29.18in /  988hPa WSW 9.0mph /  14.5km/h 14.0mph /  22.5km/h 89% 0.00in /  0mm 0 W/m2
22:12 40.6 °F /  4.8 °C 37.7 °F /  3.2 °C 29.18in /  988hPa West 10.0mph /  16.1km/h 15.0mph /  24.1km/h 89% 0.00in /  0mm 0 W/m2
22:32 39.7 °F /  4.3 °C 37.0 °F /  2.8 °C 29.18in /  988hPa West 7.0mph /  11.3km/h 10.0mph /  16.1km/h 90% 0.00in /  0mm 0 W/m2
22:38 39.6 °F /  4.2 °C 37.2 °F /  2.9 °C 29.19in /  988.4hPa West 9.0mph /  14.5km/h 13.0mph /  20.9km/h 91% 0.00in /  0mm 0 W/m2
22:44 39.6 °F /  4.2 °C 37.2 °F /  2.9 °C 29.20in /  988.7hPa WNW 15.0mph /  24.1km/h 28.0mph /  45.1km/h 91% 0.02in /  0.51mm 0 W/m2
22:50 38.7 °F /  3.7 °C 36.3 °F /  2.4 °C 29.20in /  988.7hPa West 16.0mph /  25.7km/h 24.0mph /  38.6km/h 91% 0.04in /  1.02mm 0 W/m2
23:05 37.9 °F /  3.3 °C 35.8 °F /  2.1 °C 29.18in /  988hPa WNW 9.0mph /  14.5km/h 14.0mph /  22.5km/h 92% 0.05in /  1.27mm 0 W/m2
23:29 37.9 °F /  3.3 °C 36.1 °F /  2.3 °C 29.17in /  987.7hPa WSW 10.0mph /  16.1km/h 18.0mph /  29km/h 93% 0.06in /  1.52mm 0 W/m2
23:41 39.0 °F /  3.9 °C 36.9 °F /  2.7 °C 29.17in /  987.7hPa West 13.0mph /  20.9km/h 23.0mph /  37km/h 92% 0.05in /  1.27mm 0 W/m2
23:54 39.6 °F /  4.2 °C 37.2 °F /  2.9 °C 29.18in /  988hPa West 15.0mph /  24.1km/h 22.0mph /  35.4km/h 91% 0.01in /  0.25mm 0 W/m2
Delerius Weather

Data updates at regular intervals.